sensor_id;sensor_type;location;lat;lon;timestamp;P1;durP1;ratioP1;P2;durP2;ratioP2
485;SDS011;229;48.734;9.340;2023-06-19T00:01:14;9.70;;;9.03;;
485;SDS011;229;48.734;9.340;2023-06-19T00:03:42;14.00;;;9.07;;
485;SDS011;229;48.734;9.340;2023-06-19T00:06:09;9.80;;;8.70;;
485;SDS011;229;48.734;9.340;2023-06-19T00:08:37;9.53;;;9.03;;
485;SDS011;229;48.734;9.340;2023-06-19T00:11:06;9.20;;;8.10;;
485;SDS011;229;48.734;9.340;2023-06-19T00:13:33;9.97;;;8.53;;
485;SDS011;229;48.734;9.340;2023-06-19T00:16:00;13.33;;;9.20;;
485;SDS011;229;48.734;9.340;2023-06-19T00:18:30;9.60;;;8.60;;
485;SDS011;229;48.734;9.340;2023-06-19T00:21:05;11.57;;;9.20;;
485;SDS011;229;48.734;9.340;2023-06-19T00:23:32;9.77;;;8.70;;
485;SDS011;229;48.734;9.340;2023-06-19T00:26:00;13.57;;;9.77;;
485;SDS011;229;48.734;9.340;2023-06-19T00:28:28;10.17;;;9.07;;
485;SDS011;229;48.734;9.340;2023-06-19T00:30:55;10.17;;;8.57;;
485;SDS011;229;48.734;9.340;2023-06-19T00:33:22;9.50;;;8.57;;
485;SDS011;229;48.734;9.340;2023-06-19T00:35:51;9.80;;;8.80;;
485;SDS011;229;48.734;9.340;2023-06-19T00:38:19;9.93;;;8.77;;
485;SDS011;229;48.734;9.340;2023-06-19T00:40:46;10.27;;;8.50;;
485;SDS011;229;48.734;9.340;2023-06-19T00:43:13;9.93;;;8.53;;
485;SDS011;229;48.734;9.340;2023-06-19T00:45:41;12.67;;;9.13;;
485;SDS011;229;48.734;9.340;2023-06-19T00:48:08;10.63;;;8.90;;
485;SDS011;229;48.734;9.340;2023-06-19T00:50:35;11.37;;;9.30;;
485;SDS011;229;48.734;9.340;2023-06-19T00:53:04;12.53;;;8.67;;
485;SDS011;229;48.734;9.340;2023-06-19T00:55:32;10.40;;;9.07;;
485;SDS011;229;48.734;9.340;2023-06-19T00:58:00;10.20;;;8.70;;
485;SDS011;229;48.734;9.340;2023-06-19T01:00:27;12.10;;;8.97;;
485;SDS011;229;48.734;9.340;2023-06-19T01:02:54;9.03;;;8.53;;
485;SDS011;229;48.734;9.340;2023-06-19T01:05:21;10.53;;;8.87;;
485;SDS011;229;48.734;9.340;2023-06-19T01:07:50;12.57;;;9.10;;
485;SDS011;229;48.734;9.340;2023-06-19T01:10:21;11.67;;;9.00;;
485;SDS011;229;48.734;9.340;2023-06-19T01:12:52;13.23;;;8.97;;
485;SDS011;229;48.734;9.340;2023-06-19T01:15:22;10.47;;;8.30;;
485;SDS011;229;48.734;9.340;2023-06-19T01:17:49;10.80;;;8.20;;
485;SDS011;229;48.734;9.340;2023-06-19T01:20:16;10.90;;;9.20;;
485;SDS011;229;48.734;9.340;2023-06-19T01:22:45;9.37;;;8.87;;
485;SDS011;229;48.734;9.340;2023-06-19T01:25:13;13.00;;;10.00;;
485;SDS011;229;48.734;9.340;2023-06-19T01:27:40;13.70;;;9.97;;
485;SDS011;229;48.734;9.340;2023-06-19T01:30:08;9.10;;;8.57;;
485;SDS011;229;48.734;9.340;2023-06-19T01:32:39;11.83;;;9.07;;
485;SDS011;229;48.734;9.340;2023-06-19T01:35:07;10.60;;;9.37;;
485;SDS011;229;48.734;9.340;2023-06-19T01:37:35;10.73;;;9.20;;
485;SDS011;229;48.734;9.340;2023-06-19T01:40:05;11.00;;;9.60;;
485;SDS011;229;48.734;9.340;2023-06-19T01:42:34;10.93;;;8.70;;
485;SDS011;229;48.734;9.340;2023-06-19T01:45:02;14.50;;;9.67;;
485;SDS011;229;48.734;9.340;2023-06-19T01:47:30;11.50;;;9.30;;
485;SDS011;229;48.734;9.340;2023-06-19T01:49:57;13.07;;;8.67;;
485;SDS011;229;48.734;9.340;2023-06-19T01:52:24;12.50;;;8.80;;
485;SDS011;229;48.734;9.340;2023-06-19T01:54:51;10.10;;;8.37;;
485;SDS011;229;48.734;9.340;2023-06-19T01:57:20;8.73;;;8.23;;
485;SDS011;229;48.734;9.340;2023-06-19T01:59:47;9.47;;;8.90;;
485;SDS011;229;48.734;9.340;2023-06-19T02:02:14;9.07;;;8.57;;
485;SDS011;229;48.734;9.340;2023-06-19T02:04:41;10.63;;;9.30;;
485;SDS011;229;48.734;9.340;2023-06-19T02:07:08;10.07;;;9.00;;
485;SDS011;229;48.734;9.340;2023-06-19T02:09:37;8.73;;;8.23;;
485;SDS011;229;48.734;9.340;2023-06-19T02:12:06;12.87;;;8.30;;
485;SDS011;229;48.734;9.340;2023-06-19T02:14:35;9.33;;;8.23;;
485;SDS011;229;48.734;9.340;2023-06-19T02:17:02;11.30;;;7.83;;
485;SDS011;229;48.734;9.340;2023-06-19T02:19:29;8.07;;;7.70;;
485;SDS011;229;48.734;9.340;2023-06-19T02:21:56;11.63;;;8.33;;
485;SDS011;229;48.734;9.340;2023-06-19T02:24:24;9.00;;;8.20;;
485;SDS011;229;48.734;9.340;2023-06-19T02:26:51;10.37;;;8.17;;
485;SDS011;229;48.734;9.340;2023-06-19T02:29:18;8.90;;;8.30;;
485;SDS011;229;48.734;9.340;2023-06-19T02:31:47;12.80;;;7.80;;
485;SDS011;229;48.734;9.340;2023-06-19T02:34:14;9.73;;;7.70;;
485;SDS011;229;48.734;9.340;2023-06-19T02:36:41;7.80;;;7.40;;
485;SDS011;229;48.734;9.340;2023-06-19T02:39:10;7.80;;;7.37;;
485;SDS011;229;48.734;9.340;2023-06-19T02:41:38;8.10;;;7.57;;
485;SDS011;229;48.734;9.340;2023-06-19T02:44:08;9.20;;;7.73;;
485;SDS011;229;48.734;9.340;2023-06-19T02:46:35;9.23;;;8.30;;
485;SDS011;229;48.734;9.340;2023-06-19T02:49:04;11.23;;;8.43;;
485;SDS011;229;48.734;9.340;2023-06-19T02:51:31;10.50;;;7.67;;
485;SDS011;229;48.734;9.340;2023-06-19T02:53:58;8.10;;;7.70;;
485;SDS011;229;48.734;9.340;2023-06-19T02:56:25;8.57;;;8.13;;
485;SDS011;229;48.734;9.340;2023-06-19T02:58:53;7.97;;;7.03;;
485;SDS011;229;48.734;9.340;2023-06-19T03:01:21;8.70;;;8.10;;
485;SDS011;229;48.734;9.340;2023-06-19T03:03:48;10.83;;;8.30;;
485;SDS011;229;48.734;9.340;2023-06-19T03:06:18;10.60;;;8.53;;
485;SDS011;229;48.734;9.340;2023-06-19T03:08:45;11.83;;;9.10;;
485;SDS011;229;48.734;9.340;2023-06-19T03:11:13;9.17;;;8.67;;
485;SDS011;229;48.734;9.340;2023-06-19T03:13:44;10.43;;;9.00;;
485;SDS011;229;48.734;9.340;2023-06-19T03:16:11;8.87;;;8.37;;
485;SDS011;229;48.734;9.340;2023-06-19T03:18:39;11.33;;;8.80;;
485;SDS011;229;48.734;9.340;2023-06-19T03:21:06;9.13;;;8.70;;
485;SDS011;229;48.734;9.340;2023-06-19T03:23:35;10.93;;;8.27;;
485;SDS011;229;48.734;9.340;2023-06-19T03:26:02;9.27;;;8.77;;
485;SDS011;229;48.734;9.340;2023-06-19T03:28:29;11.93;;;9.20;;
485;SDS011;229;48.734;9.340;2023-06-19T03:30:56;10.10;;;8.20;;
485;SDS011;229;48.734;9.340;2023-06-19T03:33:24;8.83;;;8.20;;
485;SDS011;229;48.734;9.340;2023-06-19T03:35:51;9.67;;;7.80;;
485;SDS011;229;48.734;9.340;2023-06-19T03:38:18;8.90;;;8.40;;
485;SDS011;229;48.734;9.340;2023-06-19T03:40:46;10.57;;;8.80;;
485;SDS011;229;48.734;9.340;2023-06-19T03:43:14;11.50;;;9.10;;
485;SDS011;229;48.734;9.340;2023-06-19T03:45:41;8.07;;;7.60;;
485;SDS011;229;48.734;9.340;2023-06-19T03:48:08;12.10;;;8.43;;
485;SDS011;229;48.734;9.340;2023-06-19T03:50:35;8.60;;;7.50;;
485;SDS011;229;48.734;9.340;2023-06-19T03:53:02;9.07;;;8.23;;
485;SDS011;229;48.734;9.340;2023-06-19T03:55:30;8.40;;;6.87;;
485;SDS011;229;48.734;9.340;2023-06-19T03:57:58;11.40;;;7.20;;
485;SDS011;229;48.734;9.340;2023-06-19T04:00:25;6.93;;;6.53;;
485;SDS011;229;48.734;9.340;2023-06-19T04:02:53;8.97;;;8.10;;
485;SDS011;229;48.734;9.340;2023-06-19T04:05:20;8.77;;;8.27;;
485;SDS011;229;48.734;9.340;2023-06-19T04:07:47;8.30;;;7.90;;
485;SDS011;229;48.734;9.340;2023-06-19T04:10:14;8.57;;;7.90;;
485;SDS011;229;48.734;9.340;2023-06-19T04:12:42;8.10;;;7.70;;
485;SDS011;229;48.734;9.340;2023-06-19T04:15:11;8.80;;;8.30;;
485;SDS011;229;48.734;9.340;2023-06-19T04:17:38;9.37;;;8.87;;
485;SDS011;229;48.734;9.340;2023-06-19T04:20:06;12.47;;;9.77;;
485;SDS011;229;48.734;9.340;2023-06-19T04:22:36;9.57;;;8.83;;
485;SDS011;229;48.734;9.340;2023-06-19T04:25:03;9.17;;;8.67;;
485;SDS011;229;48.734;9.340;2023-06-19T04:27:31;9.73;;;8.70;;
485;SDS011;229;48.734;9.340;2023-06-19T04:29:58;8.00;;;7.60;;
485;SDS011;229;48.734;9.340;2023-06-19T04:32:26;8.60;;;7.80;;
485;SDS011;229;48.734;9.340;2023-06-19T04:34:53;13.43;;;9.10;;
485;SDS011;229;48.734;9.340;2023-06-19T04:37:21;9.87;;;8.50;;
485;SDS011;229;48.734;9.340;2023-06-19T04:39:48;12.80;;;9.13;;
485;SDS011;229;48.734;9.340;2023-06-19T04:42:16;10.20;;;9.40;;
485;SDS011;229;48.734;9.340;2023-06-19T04:44:45;12.57;;;8.83;;
485;SDS011;229;48.734;9.340;2023-06-19T04:47:12;12.07;;;8.73;;
485;SDS011;229;48.734;9.340;2023-06-19T04:49:42;8.70;;;8.20;;
485;SDS011;229;48.734;9.340;2023-06-19T04:52:09;8.47;;;8.00;;
485;SDS011;229;48.734;9.340;2023-06-19T04:54:36;13.10;;;9.40;;
485;SDS011;229;48.734;9.340;2023-06-19T04:57:04;11.60;;;8.47;;
485;SDS011;229;48.734;9.340;2023-06-19T04:59:31;13.03;;;8.70;;
485;SDS011;229;48.734;9.340;2023-06-19T05:01:59;10.87;;;9.07;;
485;SDS011;229;48.734;9.340;2023-06-19T05:04:26;10.87;;;8.97;;
485;SDS011;229;48.734;9.340;2023-06-19T05:06:56;9.97;;;9.40;;
485;SDS011;229;48.734;9.340;2023-06-19T05:09:24;9.17;;;8.57;;
485;SDS011;229;48.734;9.340;2023-06-19T05:11:51;9.00;;;8.50;;
485;SDS011;229;48.734;9.340;2023-06-19T05:14:18;12.10;;;8.33;;
485;SDS011;229;48.734;9.340;2023-06-19T05:16:45;9.87;;;8.27;;
485;SDS011;229;48.734;9.340;2023-06-19T05:19:12;9.10;;;8.23;;
485;SDS011;229;48.734;9.340;2023-06-19T05:21:39;10.40;;;9.10;;
485;SDS011;229;48.734;9.340;2023-06-19T05:24:08;10.57;;;8.60;;
485;SDS011;229;48.734;9.340;2023-06-19T05:26:35;7.83;;;7.50;;
485;SDS011;229;48.734;9.340;2023-06-19T05:29:02;9.30;;;7.70;;
485;SDS011;229;48.734;9.340;2023-06-19T05:31:33;8.43;;;7.10;;
485;SDS011;229;48.734;9.340;2023-06-19T05:34:00;9.57;;;8.00;;
485;SDS011;229;48.734;9.340;2023-06-19T05:36:28;9.00;;;7.40;;
485;SDS011;229;48.734;9.340;2023-06-19T05:38:55;10.60;;;7.30;;
485;SDS011;229;48.734;9.340;2023-06-19T05:41:24;7.00;;;6.40;;
485;SDS011;229;48.734;9.340;2023-06-19T05:43:51;11.60;;;7.53;;
485;SDS011;229;48.734;9.340;2023-06-19T05:46:18;8.60;;;7.50;;
485;SDS011;229;48.734;9.340;2023-06-19T05:48:45;9.10;;;8.60;;
485;SDS011;229;48.734;9.340;2023-06-19T05:51:13;8.37;;;7.93;;
485;SDS011;229;48.734;9.340;2023-06-19T05:53:40;9.00;;;8.50;;
485;SDS011;229;48.734;9.340;2023-06-19T05:56:08;13.30;;;7.57;;
485;SDS011;229;48.734;9.340;2023-06-19T05:58:37;7.80;;;7.40;;
485;SDS011;229;48.734;9.340;2023-06-19T06:01:04;7.77;;;7.37;;
485;SDS011;229;48.734;9.340;2023-06-19T06:03:32;9.00;;;7.97;;
485;SDS011;229;48.734;9.340;2023-06-19T06:05:59;7.70;;;7.30;;
485;SDS011;229;48.734;9.340;2023-06-19T06:08:28;9.37;;;8.20;;
485;SDS011;229;48.734;9.340;2023-06-19T06:10:55;8.17;;;7.77;;
485;SDS011;229;48.734;9.340;2023-06-19T06:13:22;8.43;;;7.97;;
485;SDS011;229;48.734;9.340;2023-06-19T06:15:51;8.63;;;8.13;;
485;SDS011;229;48.734;9.340;2023-06-19T06:18:18;9.57;;;9.07;;
485;SDS011;229;48.734;9.340;2023-06-19T06:20:45;10.10;;;8.07;;
485;SDS011;229;48.734;9.340;2023-06-19T06:23:13;9.03;;;8.53;;
485;SDS011;229;48.734;9.340;2023-06-19T06:25:40;8.47;;;7.97;;
485;SDS011;229;48.734;9.340;2023-06-19T06:28:07;11.23;;;7.90;;
485;SDS011;229;48.734;9.340;2023-06-19T06:30:34;8.80;;;8.30;;
485;SDS011;229;48.734;9.340;2023-06-19T06:33:03;8.80;;;8.30;;
485;SDS011;229;48.734;9.340;2023-06-19T06:35:30;8.50;;;8.00;;
485;SDS011;229;48.734;9.340;2023-06-19T06:37:57;7.57;;;7.07;;
485;SDS011;229;48.734;9.340;2023-06-19T06:40:24;9.90;;;7.07;;
485;SDS011;229;48.734;9.340;2023-06-19T06:42:52;8.90;;;8.40;;
485;SDS011;229;48.734;9.340;2023-06-19T06:45:20;8.63;;;8.13;;
485;SDS011;229;48.734;9.340;2023-06-19T06:47:47;8.90;;;8.40;;
485;SDS011;229;48.734;9.340;2023-06-19T06:50:15;9.10;;;8.37;;
485;SDS011;229;48.734;9.340;2023-06-19T06:52:43;10.03;;;9.30;;
485;SDS011;229;48.734;9.340;2023-06-19T06:55:10;9.07;;;8.57;;
485;SDS011;229;48.734;9.340;2023-06-19T06:57:37;8.83;;;8.33;;
485;SDS011;229;48.734;9.340;2023-06-19T07:00:05;8.20;;;7.60;;
485;SDS011;229;48.734;9.340;2023-06-19T07:02:34;8.70;;;8.20;;
485;SDS011;229;48.734;9.340;2023-06-19T07:05:02;7.40;;;7.00;;
485;SDS011;229;48.734;9.340;2023-06-19T07:07:30;8.10;;;7.70;;
485;SDS011;229;48.734;9.340;2023-06-19T07:09:57;8.57;;;8.07;;
485;SDS011;229;48.734;9.340;2023-06-19T07:12:25;8.73;;;8.23;;
485;SDS011;229;48.734;9.340;2023-06-19T07:14:53;8.70;;;8.20;;
485;SDS011;229;48.734;9.340;2023-06-19T07:17:20;8.23;;;7.10;;
485;SDS011;229;48.734;9.340;2023-06-19T07:19:47;9.60;;;9.10;;
485;SDS011;229;48.734;9.340;2023-06-19T07:22:14;11.33;;;8.73;;
485;SDS011;229;48.734;9.340;2023-06-19T07:24:43;9.27;;;8.77;;
485;SDS011;229;48.734;9.340;2023-06-19T07:27:10;8.37;;;7.93;;
485;SDS011;229;48.734;9.340;2023-06-19T07:29:37;10.80;;;8.93;;
485;SDS011;229;48.734;9.340;2023-06-19T07:32:05;8.20;;;7.80;;
485;SDS011;229;48.734;9.340;2023-06-19T07:34:32;7.57;;;7.10;;
485;SDS011;229;48.734;9.340;2023-06-19T07:36:59;8.93;;;8.33;;
485;SDS011;229;48.734;9.340;2023-06-19T07:39:26;9.27;;;8.77;;
485;SDS011;229;48.734;9.340;2023-06-19T07:41:55;7.27;;;6.87;;
485;SDS011;229;48.734;9.340;2023-06-19T07:44:22;7.60;;;7.20;;
485;SDS011;229;48.734;9.340;2023-06-19T07:46:49;7.80;;;7.40;;
485;SDS011;229;48.734;9.340;2023-06-19T07:49:16;7.30;;;6.90;;
485;SDS011;229;48.734;9.340;2023-06-19T07:51:44;7.50;;;7.10;;
485;SDS011;229;48.734;9.340;2023-06-19T07:54:11;7.43;;;7.03;;
485;SDS011;229;48.734;9.340;2023-06-19T07:56:38;6.33;;;5.97;;
485;SDS011;229;48.734;9.340;2023-06-19T07:59:07;6.50;;;6.10;;
485;SDS011;229;48.734;9.340;2023-06-19T08:01:35;7.50;;;7.10;;
485;SDS011;229;48.734;9.340;2023-06-19T08:04:03;7.50;;;7.10;;
485;SDS011;229;48.734;9.340;2023-06-19T08:06:30;7.33;;;6.93;;
485;SDS011;229;48.734;9.340;2023-06-19T08:08:58;7.30;;;6.90;;
485;SDS011;229;48.734;9.340;2023-06-19T08:11:25;7.30;;;6.90;;
485;SDS011;229;48.734;9.340;2023-06-19T08:13:52;7.43;;;7.03;;
485;SDS011;229;48.734;9.340;2023-06-19T08:16:21;7.30;;;6.90;;
485;SDS011;229;48.734;9.340;2023-06-19T08:18:48;7.53;;;7.13;;
485;SDS011;229;48.734;9.340;2023-06-19T08:21:15;6.50;;;6.10;;
485;SDS011;229;48.734;9.340;2023-06-19T08:23:42;7.63;;;7.23;;
485;SDS011;229;48.734;9.340;2023-06-19T08:26:09;6.87;;;6.47;;
485;SDS011;229;48.734;9.340;2023-06-19T08:28:37;6.70;;;6.30;;
485;SDS011;229;48.734;9.340;2023-06-19T08:31:06;8.27;;;7.87;;
485;SDS011;229;48.734;9.340;2023-06-19T08:33:35;8.30;;;7.90;;
485;SDS011;229;48.734;9.340;2023-06-19T08:36:02;9.40;;;8.10;;
485;SDS011;229;48.734;9.340;2023-06-19T08:38:29;8.20;;;7.80;;
485;SDS011;229;48.734;9.340;2023-06-19T08:40:56;7.77;;;7.37;;
485;SDS011;229;48.734;9.340;2023-06-19T08:43:24;7.03;;;6.63;;
485;SDS011;229;48.734;9.340;2023-06-19T08:45:56;8.37;;;7.93;;
485;SDS011;229;48.734;9.340;2023-06-19T08:48:28;7.60;;;7.20;;
485;SDS011;229;48.734;9.340;2023-06-19T08:50:57;9.07;;;7.47;;
485;SDS011;229;48.734;9.340;2023-06-19T08:53:24;8.60;;;8.10;;
485;SDS011;229;48.734;9.340;2023-06-19T08:55:51;7.50;;;7.10;;
485;SDS011;229;48.734;9.340;2023-06-19T08:58:21;8.43;;;7.97;;
485;SDS011;229;48.734;9.340;2023-06-19T09:00:49;7.53;;;7.13;;
485;SDS011;229;48.734;9.340;2023-06-19T09:03:19;7.47;;;7.07;;
485;SDS011;229;48.734;9.340;2023-06-19T09:05:46;7.50;;;7.10;;
485;SDS011;229;48.734;9.340;2023-06-19T09:08:17;6.80;;;6.40;;
485;SDS011;229;48.734;9.340;2023-06-19T09:10:53;7.77;;;7.37;;
485;SDS011;229;48.734;9.340;2023-06-19T09:13:20;7.67;;;7.27;;
485;SDS011;229;48.734;9.340;2023-06-19T09:15:48;8.70;;;8.20;;
485;SDS011;229;48.734;9.340;2023-06-19T09:18:15;8.70;;;8.20;;
485;SDS011;229;48.734;9.340;2023-06-19T09:20:43;7.20;;;6.80;;
485;SDS011;229;48.734;9.340;2023-06-19T09:23:10;7.57;;;7.17;;
485;SDS011;229;48.734;9.340;2023-06-19T09:25:45;6.97;;;6.57;;
485;SDS011;229;48.734;9.340;2023-06-19T09:28:19;7.53;;;7.13;;
485;SDS011;229;48.734;9.340;2023-06-19T09:30:56;8.50;;;8.00;;
485;SDS011;229;48.734;9.340;2023-06-19T09:33:24;8.67;;;8.17;;
485;SDS011;229;48.734;9.340;2023-06-19T09:35:51;7.87;;;7.47;;
485;SDS011;229;48.734;9.340;2023-06-19T09:38:21;7.50;;;7.10;;
485;SDS011;229;48.734;9.340;2023-06-19T09:40:50;7.53;;;7.13;;
485;SDS011;229;48.734;9.340;2023-06-19T09:43:18;7.00;;;6.60;;
485;SDS011;229;48.734;9.340;2023-06-19T09:45:47;7.90;;;7.50;;
485;SDS011;229;48.734;9.340;2023-06-19T09:48:17;8.07;;;7.67;;
485;SDS011;229;48.734;9.340;2023-06-19T09:50:46;8.30;;;7.90;;
485;SDS011;229;48.734;9.340;2023-06-19T09:53:14;7.40;;;7.00;;
485;SDS011;229;48.734;9.340;2023-06-19T09:55:42;7.93;;;7.27;;
485;SDS011;229;48.734;9.340;2023-06-19T09:58:10;7.50;;;7.10;;
485;SDS011;229;48.734;9.340;2023-06-19T10:00:37;6.00;;;5.70;;
485;SDS011;229;48.734;9.340;2023-06-19T10:03:10;8.37;;;6.63;;
485;SDS011;229;48.734;9.340;2023-06-19T10:05:38;9.03;;;8.53;;
485;SDS011;229;48.734;9.340;2023-06-19T10:08:05;9.10;;;8.60;;
485;SDS011;229;48.734;9.340;2023-06-19T10:10:33;6.83;;;6.43;;
485;SDS011;229;48.734;9.340;2023-06-19T10:13:12;7.50;;;7.10;;
485;SDS011;229;48.734;9.340;2023-06-19T10:15:40;7.83;;;7.43;;
485;SDS011;229;48.734;9.340;2023-06-19T10:18:08;7.00;;;6.60;;
485;SDS011;229;48.734;9.340;2023-06-19T10:20:40;6.87;;;6.47;;
485;SDS011;229;48.734;9.340;2023-06-19T10:23:08;8.10;;;7.70;;
485;SDS011;229;48.734;9.340;2023-06-19T10:25:37;8.20;;;7.80;;
485;SDS011;229;48.734;9.340;2023-06-19T10:28:15;7.47;;;7.07;;
485;SDS011;229;48.734;9.340;2023-06-19T10:30:44;6.70;;;6.23;;
485;SDS011;229;48.734;9.340;2023-06-19T10:33:11;7.00;;;6.60;;
485;SDS011;229;48.734;9.340;2023-06-19T10:35:38;6.40;;;6.00;;
485;SDS011;229;48.734;9.340;2023-06-19T10:38:06;7.13;;;6.73;;
485;SDS011;229;48.734;9.340;2023-06-19T10:40:35;8.60;;;7.30;;
485;SDS011;229;48.734;9.340;2023-06-19T10:43:02;8.13;;;7.73;;
485;SDS011;229;48.734;9.340;2023-06-19T10:45:30;8.03;;;7.63;;
485;SDS011;229;48.734;9.340;2023-06-19T10:48:00;8.70;;;8.20;;
485;SDS011;229;48.734;9.340;2023-06-19T10:50:28;9.43;;;6.53;;
485;SDS011;229;48.734;9.340;2023-06-19T10:52:58;6.87;;;6.47;;
485;SDS011;229;48.734;9.340;2023-06-19T10:55:25;8.03;;;7.63;;
485;SDS011;229;48.734;9.340;2023-06-19T10:57:53;8.10;;;7.70;;
485;SDS011;229;48.734;9.340;2023-06-19T11:00:23;6.97;;;6.20;;
485;SDS011;229;48.734;9.340;2023-06-19T11:02:51;6.93;;;6.43;;
485;SDS011;229;48.734;9.340;2023-06-19T11:05:23;6.67;;;6.27;;
485;SDS011;229;48.734;9.340;2023-06-19T11:07:50;7.17;;;6.77;;
485;SDS011;229;48.734;9.340;2023-06-19T11:10:21;7.67;;;7.27;;
485;SDS011;229;48.734;9.340;2023-06-19T11:12:49;8.53;;;8.03;;
485;SDS011;229;48.734;9.340;2023-06-19T11:15:16;8.33;;;7.33;;
485;SDS011;229;48.734;9.340;2023-06-19T11:17:43;7.50;;;7.10;;
485;SDS011;229;48.734;9.340;2023-06-19T11:20:11;7.40;;;7.00;;
485;SDS011;229;48.734;9.340;2023-06-19T11:22:41;7.13;;;6.73;;
485;SDS011;229;48.734;9.340;2023-06-19T11:25:08;6.60;;;6.20;;
485;SDS011;229;48.734;9.340;2023-06-19T11:27:39;7.10;;;6.70;;
485;SDS011;229;48.734;9.340;2023-06-19T11:30:07;6.70;;;6.30;;
485;SDS011;229;48.734;9.340;2023-06-19T11:32:36;7.13;;;6.73;;
485;SDS011;229;48.734;9.340;2023-06-19T11:35:07;8.60;;;7.60;;
485;SDS011;229;48.734;9.340;2023-06-19T11:37:34;7.80;;;7.40;;
485;SDS011;229;48.734;9.340;2023-06-19T11:40:03;6.23;;;5.90;;
485;SDS011;229;48.734;9.340;2023-06-19T11:42:51;8.93;;;8.43;;
485;SDS011;229;48.734;9.340;2023-06-19T11:45:19;10.30;;;9.80;;
485;SDS011;229;48.734;9.340;2023-06-19T11:47:46;10.47;;;9.93;;
485;SDS011;229;48.734;9.340;2023-06-19T11:50:13;8.63;;;8.13;;
485;SDS011;229;48.734;9.340;2023-06-19T11:52:42;8.83;;;8.33;;
485;SDS011;229;48.734;9.340;2023-06-19T11:55:12;8.20;;;7.57;;
485;SDS011;229;48.734;9.340;2023-06-19T11:57:40;8.07;;;7.63;;
485;SDS011;229;48.734;9.340;2023-06-19T12:00:15;9.13;;;6.50;;
485;SDS011;229;48.734;9.340;2023-06-19T12:02:43;10.50;;;7.23;;
485;SDS011;229;48.734;9.340;2023-06-19T12:05:11;7.90;;;7.50;;
485;SDS011;229;48.734;9.340;2023-06-19T12:07:39;8.20;;;7.80;;
485;SDS011;229;48.734;9.340;2023-06-19T12:10:06;7.37;;;6.80;;
485;SDS011;229;48.734;9.340;2023-06-19T12:12:38;7.87;;;6.80;;
485;SDS011;229;48.734;9.340;2023-06-19T12:15:06;8.70;;;6.60;;
485;SDS011;229;48.734;9.340;2023-06-19T12:17:33;7.17;;;6.77;;
485;SDS011;229;48.734;9.340;2023-06-19T12:20:02;7.60;;;6.50;;
485;SDS011;229;48.734;9.340;2023-06-19T12:22:31;7.27;;;6.87;;
485;SDS011;229;48.734;9.340;2023-06-19T12:24:59;8.53;;;7.10;;
485;SDS011;229;48.734;9.340;2023-06-19T12:27:27;7.00;;;6.60;;
485;SDS011;229;48.734;9.340;2023-06-19T12:29:55;7.30;;;6.90;;
485;SDS011;229;48.734;9.340;2023-06-19T12:32:22;7.70;;;7.30;;
485;SDS011;229;48.734;9.340;2023-06-19T12:34:50;8.70;;;7.33;;
485;SDS011;229;48.734;9.340;2023-06-19T12:37:19;11.90;;;8.10;;
485;SDS011;229;48.734;9.340;2023-06-19T12:39:46;7.70;;;7.30;;
485;SDS011;229;48.734;9.340;2023-06-19T12:42:13;7.13;;;6.73;;
485;SDS011;229;48.734;9.340;2023-06-19T12:44:40;6.70;;;6.30;;
485;SDS011;229;48.734;9.340;2023-06-19T12:47:10;8.10;;;7.13;;
485;SDS011;229;48.734;9.340;2023-06-19T12:49:37;7.17;;;6.77;;
485;SDS011;229;48.734;9.340;2023-06-19T12:52:05;7.00;;;6.60;;
485;SDS011;229;48.734;9.340;2023-06-19T12:54:32;6.60;;;6.20;;
485;SDS011;229;48.734;9.340;2023-06-19T12:57:00;6.67;;;6.27;;
485;SDS011;229;48.734;9.340;2023-06-19T12:59:27;8.73;;;6.10;;
485;SDS011;229;48.734;9.340;2023-06-19T13:01:54;8.37;;;7.93;;
485;SDS011;229;48.734;9.340;2023-06-19T13:04:23;8.17;;;7.77;;
485;SDS011;229;48.734;9.340;2023-06-19T13:06:50;7.57;;;7.17;;
485;SDS011;229;48.734;9.340;2023-06-19T13:09:17;7.67;;;7.30;;
485;SDS011;229;48.734;9.340;2023-06-19T13:11:44;7.83;;;7.43;;
485;SDS011;229;48.734;9.340;2023-06-19T13:14:11;8.37;;;7.20;;
485;SDS011;229;48.734;9.340;2023-06-19T13:16:39;6.87;;;6.47;;
485;SDS011;229;48.734;9.340;2023-06-19T13:19:06;9.10;;;6.87;;
485;SDS011;229;48.734;9.340;2023-06-19T13:21:34;7.83;;;7.43;;
485;SDS011;229;48.734;9.340;2023-06-19T13:24:02;7.50;;;7.10;;
485;SDS011;229;48.734;9.340;2023-06-19T13:26:29;7.27;;;6.87;;
485;SDS011;229;48.734;9.340;2023-06-19T13:28:56;7.40;;;7.00;;
485;SDS011;229;48.734;9.340;2023-06-19T13:31:24;8.03;;;6.60;;
485;SDS011;229;48.734;9.340;2023-06-19T13:33:51;6.13;;;5.83;;
485;SDS011;229;48.734;9.340;2023-06-19T13:36:18;6.23;;;5.90;;
485;SDS011;229;48.734;9.340;2023-06-19T13:38:47;7.20;;;6.30;;
485;SDS011;229;48.734;9.340;2023-06-19T13:41:14;6.70;;;6.30;;
485;SDS011;229;48.734;9.340;2023-06-19T13:43:41;10.00;;;6.47;;
485;SDS011;229;48.734;9.340;2023-06-19T13:46:10;7.40;;;7.00;;
485;SDS011;229;48.734;9.340;2023-06-19T13:48:37;7.17;;;6.40;;
485;SDS011;229;48.734;9.340;2023-06-19T13:51:04;8.80;;;7.00;;
485;SDS011;229;48.734;9.340;2023-06-19T13:53:31;6.30;;;5.27;;
485;SDS011;229;48.734;9.340;2023-06-19T13:56:00;7.37;;;6.97;;
485;SDS011;229;48.734;9.340;2023-06-19T13:58:27;7.03;;;6.60;;
485;SDS011;229;48.734;9.340;2023-06-19T14:00:54;6.50;;;6.10;;
485;SDS011;229;48.734;9.340;2023-06-19T14:03:22;6.70;;;6.30;;
485;SDS011;229;48.734;9.340;2023-06-19T14:05:49;7.67;;;6.57;;
485;SDS011;229;48.734;9.340;2023-06-19T14:08:16;6.90;;;6.50;;
485;SDS011;229;48.734;9.340;2023-06-19T14:10:44;6.90;;;6.50;;
485;SDS011;229;48.734;9.340;2023-06-19T14:13:12;6.17;;;5.57;;
485;SDS011;229;48.734;9.340;2023-06-19T14:15:39;10.53;;;6.83;;
485;SDS011;229;48.734;9.340;2023-06-19T14:18:07;6.90;;;6.50;;
485;SDS011;229;48.734;9.340;2023-06-19T14:20:34;6.73;;;6.33;;
485;SDS011;229;48.734;9.340;2023-06-19T14:23:01;6.73;;;6.33;;
485;SDS011;229;48.734;9.340;2023-06-19T14:25:28;7.40;;;6.90;;
485;SDS011;229;48.734;9.340;2023-06-19T14:27:55;7.50;;;7.10;;
485;SDS011;229;48.734;9.340;2023-06-19T14:30:24;6.53;;;5.60;;
485;SDS011;229;48.734;9.340;2023-06-19T14:32:51;5.83;;;5.53;;
485;SDS011;229;48.734;9.340;2023-06-19T14:35:18;6.47;;;6.07;;
485;SDS011;229;48.734;9.340;2023-06-19T14:37:46;5.73;;;5.43;;
485;SDS011;229;48.734;9.340;2023-06-19T14:40:13;6.53;;;6.13;;
485;SDS011;229;48.734;9.340;2023-06-19T14:42:40;6.60;;;6.20;;
485;SDS011;229;48.734;9.340;2023-06-19T14:45:07;7.17;;;6.40;;
485;SDS011;229;48.734;9.340;2023-06-19T14:47:36;7.17;;;6.77;;
485;SDS011;229;48.734;9.340;2023-06-19T14:50:04;6.10;;;5.80;;
485;SDS011;229;48.734;9.340;2023-06-19T14:52:31;5.60;;;5.30;;
485;SDS011;229;48.734;9.340;2023-06-19T14:54:58;5.93;;;5.63;;
485;SDS011;229;48.734;9.340;2023-06-19T14:57:25;5.90;;;5.60;;
485;SDS011;229;48.734;9.340;2023-06-19T14:59:53;8.50;;;7.13;;
485;SDS011;229;48.734;9.340;2023-06-19T15:02:20;7.50;;;7.10;;
485;SDS011;229;48.734;9.340;2023-06-19T15:04:48;6.33;;;5.97;;
485;SDS011;229;48.734;9.340;2023-06-19T15:07:15;6.03;;;5.73;;
485;SDS011;229;48.734;9.340;2023-06-19T15:09:43;6.87;;;6.43;;
485;SDS011;229;48.734;9.340;2023-06-19T15:12:10;8.33;;;5.90;;
485;SDS011;229;48.734;9.340;2023-06-19T15:14:37;6.73;;;5.43;;
485;SDS011;229;48.734;9.340;2023-06-19T15:17:06;6.53;;;6.13;;
485;SDS011;229;48.734;9.340;2023-06-19T15:19:40;6.83;;;5.90;;
485;SDS011;229;48.734;9.340;2023-06-19T15:22:09;6.40;;;6.03;;
485;SDS011;229;48.734;9.340;2023-06-19T15:24:36;5.80;;;5.50;;
485;SDS011;229;48.734;9.340;2023-06-19T15:27:03;6.20;;;5.90;;
485;SDS011;229;48.734;9.340;2023-06-19T15:29:30;7.13;;;6.73;;
485;SDS011;229;48.734;9.340;2023-06-19T15:31:58;5.40;;;5.10;;
485;SDS011;229;48.734;9.340;2023-06-19T15:34:25;6.20;;;5.90;;
485;SDS011;229;48.734;9.340;2023-06-19T15:36:52;6.17;;;5.47;;
485;SDS011;229;48.734;9.340;2023-06-19T15:39:21;5.70;;;5.40;;
485;SDS011;229;48.734;9.340;2023-06-19T15:41:48;7.60;;;5.83;;
485;SDS011;229;48.734;9.340;2023-06-19T15:44:15;6.33;;;5.97;;
485;SDS011;229;48.734;9.340;2023-06-19T15:46:42;8.33;;;5.47;;